Time;durP1;ratioP1;P1;durP2;ratioP2;P2;SDS_P1;SDS_P2;PMS_P1;PMS_P2;Temp;Humidity;BMP_temperature;BMP_pressure;BME280_temperature;BME280_humidity;BME280_pressure;Samples;Min_cycle;Max_cycle;Signal;HPM_P1;HPM_P2
2021/12/17 00:04:57;;;;;;;;;;;;;;;;;;5101795;28;19948;-86
2021/12/17 00:07:24;;;;;;;;;;;;;;;;;;5115272;28;19953;-85
2021/12/17 00:09:51;;;;;;;;;;;;;;;;;;5115028;28;20084;-86
2021/12/17 00:12:18;;;;;;;;;;;;;;;;;;5114908;28;20040;-86
2021/12/17 00:14:47;;;;;;;;;;;;;;;;;;5114875;28;20008;-85
2021/12/17 00:17:20;;;;;;;;;;;;;;;;;;5114808;28;20011;-86
2021/12/17 00:20:03;;;;;;;;;;;;;;;;;;5115020;28;19964;-86
2021/12/17 00:50:10;;;;;;;;;;;;;;;;;;5114883;28;19951;-86
2021/12/17 00:52:39;;;;;;;;;;;;;;;;;;5114287;28;19993;-85
2021/12/17 00:55:06;;;;;;;;;;;;;;;;;;5114463;28;19977;-86
2021/12/17 00:57:38;;;;;;;;;;;;;;;;;;5114361;28;20408;-86
2021/12/17 01:00:06;;;;;;;;;;;;;;;;;;5114269;28;19954;-85
2021/12/17 01:02:33;;;;;;;;;;;;;;;;;;5114012;28;20394;-86
2021/12/17 01:05:00;;;;;;;;;;;;;;;;;;5114013;28;20044;-86
2021/12/17 01:07:27;;;;;;;;;;;;;;;;;;5114349;28;20038;-86
2021/12/17 01:09:54;;;;;;;;;;;;;;;;;;5113794;28;20066;-85
2021/12/17 01:12:22;;;;;;;;;;;;;;;;;;5113488;28;20299;-85
2021/12/17 01:14:49;;;;;;;;;;;;;;;;;;5113949;28;20090;-86
2021/12/17 01:17:17;;;;;;;;;;;;;;;;;;5114094;28;20044;-86
2021/12/17 01:20:13;;;;;;;;;;;;;;;;;;5115798;28;19961;-86
2021/12/17 01:25:38;;;;;;;;;;;;;;;;;;5088366;28;19952;-86
2021/12/17 01:36:19;;;;;;;;;;;;;;;;;;5093436;28;20434;-86
2021/12/17 01:39:45;;;;;;;;;;;;;;;;;;5093796;28;20038;-86
2021/12/17 01:42:04;;;;;;;;;;;;;;;;;;5093467;28;20482;-86
2021/12/17 01:44:31;;;;;;;;;;;;;;;;;;5093437;28;19952;-86
2021/12/17 01:46:58;;;;;;;;;;;;;;;;;;5093616;28;19996;-86
2021/12/17 01:55:40;;;;;;;;;;;;;;;;;;5093334;28;20421;-86
2021/12/17 02:00:31;;;;;;;;;;;;;;;;;;5093338;28;20409;-86
2021/12/17 02:02:58;;;;;;;;;;;;;;;;;;5093302;28;19961;-86
2021/12/17 02:05:25;;;;;;;;;;;;;;;;;;5093183;28;19960;-86
2021/12/17 02:07:55;;;;;;;;;;;;;;;;;;5093210;28;20435;-85
2021/12/17 02:11:08;;;;;;;;;;;;;;;;;;5093141;28;19981;-85
2021/12/17 02:30:26;;;;;;;;;;;;;;;;;;5096708;28;20478;-86
2021/12/17 02:32:53;;;;;;;;;;;;;;;;;;5096651;28;19998;-86
2021/12/17 02:35:30;;;;;;;;;;;;;;;;;;5096457;28;20034;-85
2021/12/17 02:37:57;;;;;;;;;;;;;;;;;;5096678;28;19951;-86
2021/12/17 02:45:54;;;;;;;;;;;;;;;;;;5097664;28;20439;-86
2021/12/17 02:48:21;;;;;;;;;;;;;;;;;;5096402;28;19955;-86
2021/12/17 02:50:48;;;;;;;;;;;;;;;;;;5096164;28;20476;-86
2021/12/17 02:53:15;;;;;;;;;;;;;;;;;;5096158;28;20053;-86
2021/12/17 02:55:42;;;;;;;;;;;;;;;;;;5096334;28;20057;-86
2021/12/17 02:58:09;;;;;;;;;;;;;;;;;;5096003;28;20054;-86
2021/12/17 03:00:36;;;;;;;;;;;;;;;;;;5096079;28;20037;-87
2021/12/17 03:03:03;;;;;;;;;;;;;;;;;;5097013;28;20048;-86
2021/12/17 03:05:30;;;;;;;;;;;;;;;;;;5096506;28;19949;-87
2021/12/17 03:07:57;;;;;;;;;;;;;;;;;;5096868;28;20465;-87
2021/12/17 03:10:24;;;;;;;;;;;;;;;;;;5095715;28;20006;-86
2021/12/17 03:12:56;;;;;;;;;;;;;;;;;;5095897;28;20000;-85
2021/12/17 03:15:24;;;;;;;;;;;;;;;;;;5095611;28;20346;-86
2021/12/17 03:18:31;;;;;;;;;;;;;;;;;;5095075;28;19952;-87
2021/12/17 03:23:41;;;;;;;;;;;;;;;;;;5095443;28;20147;-87
2021/12/17 03:26:08;;;;;;;;;;;;;;;;;;5095717;28;19957;-86
2021/12/17 03:28:35;;;;;;;;;;;;;;;;;;5095396;28;20013;-86
2021/12/17 03:31:02;;;;;;;;;;;;;;;;;;5095394;28;20006;-87
2021/12/17 03:33:29;;;;;;;;;;;;;;;;;;5095314;28;20459;-86
2021/12/17 03:35:57;;;;;;;;;;;;;;;;;;5095346;28;20031;-86
2021/12/17 03:38:24;;;;;;;;;;;;;;;;;;5095311;28;19951;-86
2021/12/17 03:41:03;;;;;;;;;;;;;;;;;;5095153;28;19993;-87
2021/12/17 03:43:31;;;;;;;;;;;;;;;;;;5095499;28;19982;-86
2021/12/17 03:45:58;;;;;;;;;;;;;;;;;;5095198;28;19998;-86
2021/12/17 03:48:25;;;;;;;;;;;;;;;;;;5095065;28;20038;-87
2021/12/17 03:50:52;;;;;;;;;;;;;;;;;;5094983;28;20371;-86
2021/12/17 03:53:19;;;;;;;;;;;;;;;;;;5095042;28;20003;-87
2021/12/17 03:55:46;;;;;;;;;;;;;;;;;;5094832;28;20051;-86
2021/12/17 03:58:13;;;;;;;;;;;;;;;;;;5095194;28;20114;-87
2021/12/17 04:00:40;;;;;;;;;;;;;;;;;;5094776;28;20009;-87
2021/12/17 04:03:07;;;;;;;;;;;;;;;;;;5094958;28;20041;-86
2021/12/17 04:05:34;;;;;;;;;;;;;;;;;;5094714;28;20475;-86
2021/12/17 04:08:01;;;;;;;;;;;;;;;;;;5094745;28;20047;-86
2021/12/17 04:10:37;;;;;;;;;;;;;;;;;;5094471;28;20062;-87
2021/12/17 04:13:15;;;;;;;;;;;;;;;;;;5094860;28;20054;-86
2021/12/17 04:15:44;;;;;;;;;;;;;;;;;;5094696;28;19966;-86
2021/12/17 04:18:11;;;;;;;;;;;;;;;;;;5094498;28;19959;-87
2021/12/17 04:20:38;;;;;;;;;;;;;;;;;;5094703;28;20402;-87
2021/12/17 04:23:05;;;;;;;;;;;;;;;;;;5094500;28;19999;-86
2021/12/17 04:25:32;;;;;;;;;;;;;;;;;;5094386;28;20050;-86
2021/12/17 04:27:59;;;;;;;;;;;;;;;;;;5094306;28;20052;-86
2021/12/17 04:30:27;;;;;;;;;;;;;;;;;;5094520;28;20010;-86
2021/12/17 04:32:54;;;;;;;;;;;;;;;;;;5094614;28;20008;-86
2021/12/17 04:35:21;;;;;;;;;;;;;;;;;;5093794;28;19962;-87
2021/12/17 04:37:49;;;;;;;;;;;;;;;;;;5094123;28;20400;-86
2021/12/17 04:40:17;;;;;;;;;;;;;;;;;;5094430;28;19950;-86
2021/12/17 04:42:56;;;;;;;;;;;;;;;;;;5094451;28;19958;-88
2021/12/17 04:45:24;;;;;;;;;;;;;;;;;;5095110;28;19956;-86
2021/12/17 04:58:50;;;;;;;;;;;;;;;;;;5094079;28;20400;-87
2021/12/17 05:01:17;;;;;;;;;;;;;;;;;;5094863;28;20008;-85
2021/12/17 05:03:44;;;;;;;;;;;;;;;;;;5094792;28;20050;-87
2021/12/17 05:06:11;;;;;;;;;;;;;;;;;;5093981;28;20059;-87
2021/12/17 05:08:38;;;;;;;;;;;;;;;;;;5093767;28;19956;-86
2021/12/17 05:11:22;;;;;;;;;;;;;;;;;;5093785;28;20402;-87
2021/12/17 05:19:44;;;;;;;;;;;;;;;;;;5071251;28;20057;-87
2021/12/17 05:22:12;;;;;;;;;;;;;;;;;;5085226;28;19957;-86
2021/12/17 05:24:39;;;;;;;;;;;;;;;;;;5093242;28;20399;-86
2021/12/17 05:27:06;;;;;;;;;;;;;;;;;;5093619;28;20055;-86
2021/12/17 05:29:33;;;;;;;;;;;;;;;;;;5099096;28;20027;-86
2021/12/17 05:32:00;;;;;;;;;;;;;;;;;;5113806;28;20046;-86
2021/12/17 05:34:27;;;;;;;;;;;;;;;;;;5108938;28;19998;-85
2021/12/17 05:36:54;;;;;;;;;;;;;;;;;;5096446;28;20061;-86
2021/12/17 05:39:21;;;;;;;;;;;;;;;;;;5113758;28;20041;-85
2021/12/17 05:41:48;;;;;;;;;;;;;;;;;;5113777;28;20042;-86
2021/12/17 05:44:17;;;;;;;;;;;;;;;;;;5114524;28;20722;-86
2021/12/17 05:46:49;;;;;;;;;;;;;;;;;;5114196;28;20421;-85
2021/12/17 05:49:16;;;;;;;;;;;;;;;;;;5117930;28;19960;-85
2021/12/17 05:51:43;;;;;;;;;;;;;;;;;;5117694;28;20448;-86
2021/12/17 05:54:10;;;;;;;;;;;;;;;;;;5117698;28;20048;-86
2021/12/17 05:56:37;;;;;;;;;;;;;;;;;;5117563;28;19966;-86
2021/12/17 05:59:05;;;;;;;;;;;;;;;;;;5117590;28;20523;-86
2021/12/17 06:01:32;;;;;;;;;;;;;;;;;;5117774;28;19991;-86
2021/12/17 06:03:59;;;;;;;;;;;;;;;;;;5117554;28;19958;-86
2021/12/17 06:06:26;;;;;;;;;;;;;;;;;;5117363;28;20046;-86
2021/12/17 06:08:53;;;;;;;;;;;;;;;;;;5117302;28;20052;-86
2021/12/17 06:11:20;;;;;;;;;;;;;;;;;;5117430;28;20016;-86
2021/12/17 06:13:47;;;;;;;;;;;;;;;;;;5113791;28;20040;-85
2021/12/17 06:16:14;;;;;;;;;;;;;;;;;;5117318;28;20063;-85
2021/12/17 06:18:41;;;;;;;;;;;;;;;;;;5105412;28;20035;-85
2021/12/17 06:21:08;;;;;;;;;;;;;;;;;;5096748;28;20052;-86
2021/12/17 06:23:35;;;;;;;;;;;;;;;;;;5106216;28;20375;-86
2021/12/17 06:26:02;;;;;;;;;;;;;;;;;;5117278;28;20047;-86
2021/12/17 06:28:29;;;;;;;;;;;;;;;;;;5117149;28;19994;-85
2021/12/17 06:30:56;;;;;;;;;;;;;;;;;;5117101;28;20055;-85
2021/12/17 06:33:23;;;;;;;;;;;;;;;;;;5110594;28;20042;-86
2021/12/17 06:35:50;;;;;;;;;;;;;;;;;;5096476;28;20503;-85
2021/12/17 06:38:18;;;;;;;;;;;;;;;;;;5096411;28;20049;-86
2021/12/17 06:40:45;;;;;;;;;;;;;;;;;;5096591;28;19964;-85
2021/12/17 06:43:12;;;;;;;;;;;;;;;;;;5096395;28;20539;-86
2021/12/17 06:45:50;;;;;;;;;;;;;;;;;;5096386;28;20051;-86
2021/12/17 06:48:22;;;;;;;;;;;;;;;;;;5096268;28;20459;-85
2021/12/17 06:59:22;;;;;;;;;;;;;;;;;;5108693;28;20002;-86
2021/12/17 07:10:28;;;;;;;;;;;;;;;;;;5092187;28;20359;-85
2021/12/17 07:21:22;;;;;;;;;;;;;;;;;;5095738;28;19945;-85
2021/12/17 07:35:24;;;;;;;;;;;;;;;;;;5095327;28;19949;-85
2021/12/17 07:40:34;;;;;;;;;;;;;;;;;;5095199;28;19943;-84
2021/12/17 07:43:04;;;;;;;;;;;;;;;;;;5103891;28;20438;-83
2021/12/17 07:45:31;;;;;;;;;;;;;;;;;;5115494;28;19958;-84
2021/12/17 07:47:58;;;;;;;;;;;;;;;;;;5106760;28;19996;-84
2021/12/17 07:50:25;;;;;;;;;;;;;;;;;;5095885;28;20028;-84
2021/12/17 07:52:53;;;;;;;;;;;;;;;;;;5094631;28;19951;-85
2021/12/17 07:55:22;;;;;;;;;;;;;;;;;;5099901;28;20334;-84
2021/12/17 07:57:49;;;;;;;;;;;;;;;;;;5115279;28;19971;-84
2021/12/17 08:00:16;;;;;;;;;;;;;;;;;;5109867;28;20043;-84
2021/12/17 08:02:43;;;;;;;;;;;;;;;;;;5094208;28;19999;-84
2021/12/17 08:05:10;;;;;;;;;;;;;;;;;;5109860;27;20383;-84
2021/12/17 08:07:37;;;;;;;;;;;;;;;;;;5115041;28;19984;-84
2021/12/17 08:10:04;;;;;;;;;;;;;;;;;;5112301;28;20014;-84
2021/12/17 08:12:31;;;;;;;;;;;;;;;;;;5114454;28;20000;-84
2021/12/17 08:14:58;;;;;;;;;;;;;;;;;;5100978;28;19989;-84
2021/12/17 08:26:03;;;;;;;;;;;;;;;;;;5074587;28;19951;-84
2021/12/17 08:28:50;;;;;;;;;;;;;;;;;;5094371;28;20599;-83
2021/12/17 08:31:18;;;;;;;;;;;;;;;;;;5112491;28;19978;-83
2021/12/17 08:33:45;;;;;;;;;;;;;;;;;;5111620;28;19979;-84
2021/12/17 08:36:12;;;;;;;;;;;;;;;;;;5094701;28;20513;-84
2021/12/17 08:38:39;;;;;;;;;;;;;;;;;;5094761;28;20010;-83
2021/12/17 08:41:07;;;;;;;;;;;;;;;;;;5114283;28;19962;-83
2021/12/17 08:43:34;;;;;;;;;;;;;;;;;;5114365;28;20043;-84
2021/12/17 08:46:01;;;;;;;;;;;;;;;;;;5106457;28;20047;-84
2021/12/17 08:48:28;;;;;;;;;;;;;;;;;;5098186;28;20042;-84
2021/12/17 08:50:55;;;;;;;;;;;;;;;;;;5112673;28;20487;-84
2021/12/17 08:53:22;;;;;;;;;;;;;;;;;;5104837;28;20356;-84
2021/12/17 08:55:49;;;;;;;;;;;;;;;;;;5093664;28;20038;-83
2021/12/17 08:58:16;;;;;;;;;;;;;;;;;;5100582;28;20048;-84
2021/12/17 09:00:43;;;;;;;;;;;;;;;;;;5112440;28;20047;-83
2021/12/17 09:03:10;;;;;;;;;;;;;;;;;;5110465;28;20030;-84
2021/12/17 09:05:37;;;;;;;;;;;;;;;;;;5112102;28;20393;-84
2021/12/17 09:08:04;;;;;;;;;;;;;;;;;;5112137;28;19949;-84
2021/12/17 09:10:31;;;;;;;;;;;;;;;;;;5111758;28;20058;-84
2021/12/17 09:12:58;;;;;;;;;;;;;;;;;;5114003;28;20013;-84
2021/12/17 09:15:28;;;;;;;;;;;;;;;;;;5109166;28;20437;-83
2021/12/17 09:17:55;;;;;;;;;;;;;;;;;;5109193;28;20024;-84
2021/12/17 09:20:23;;;;;;;;;;;;;;;;;;5098543;28;20025;-84
2021/12/17 09:22:50;;;;;;;;;;;;;;;;;;5112007;28;20414;-85
2021/12/17 09:25:17;;;;;;;;;;;;;;;;;;5113305;28;20369;-83
2021/12/17 09:27:44;;;;;;;;;;;;;;;;;;5113543;28;20043;-84
2021/12/17 09:30:11;;;;;;;;;;;;;;;;;;5094432;28;20421;-84
2021/12/17 09:32:39;;;;;;;;;;;;;;;;;;5101190;28;20050;-83
2021/12/17 09:35:06;;;;;;;;;;;;;;;;;;5111528;28;20455;-84
2021/12/17 09:37:32;;;;;;;;;;;;;;;;;;5108156;28;20072;-83
2021/12/17 09:39:59;;;;;;;;;;;;;;;;;;5107026;28;20048;-84
2021/12/17 09:42:26;;;;;;;;;;;;;;;;;;5110538;28;20029;-84
2021/12/17 09:44:53;;;;;;;;;;;;;;;;;;5112569;28;20048;-84
2021/12/17 09:47:20;;;;;;;;;;;;;;;;;;5112209;28;20043;-84
2021/12/17 09:49:47;;;;;;;;;;;;;;;;;;5111972;28;20042;-85
2021/12/17 09:52:14;;;;;;;;;;;;;;;;;;5093009;28;19944;-85
2021/12/17 09:54:41;;;;;;;;;;;;;;;;;;5093058;28;20042;-85
2021/12/17 09:57:08;;;;;;;;;;;;;;;;;;5113457;28;20059;-84
2021/12/17 09:59:35;;;;;;;;;;;;;;;;;;5111986;28;20037;-84
2021/12/17 10:02:02;;;;;;;;;;;;;;;;;;5093424;28;20059;-84
2021/12/17 10:04:29;;;;;;;;;;;;;;;;;;5092546;28;20398;-84
2021/12/17 10:06:56;;;;;;;;;;;;;;;;;;5092837;28;19950;-85
2021/12/17 10:09:23;;;;;;;;;;;;;;;;;;5092746;28;20056;-85
2021/12/17 10:11:50;;;;;;;;;;;;;;;;;;5092790;28;20454;-84
2021/12/17 10:14:17;;;;;;;;;;;;;;;;;;5092731;28;20376;-84
2021/12/17 10:16:46;;;;;;;;;;;;;;;;;;5092784;28;20442;-84
2021/12/17 10:19:13;;;;;;;;;;;;;;;;;;5092581;28;19957;-85
2021/12/17 10:21:40;;;;;;;;;;;;;;;;;;5092928;28;20045;-85
2021/12/17 10:24:07;;;;;;;;;;;;;;;;;;5092545;28;20040;-84
2021/12/17 10:26:34;;;;;;;;;;;;;;;;;;5092335;28;20387;-84
2021/12/17 10:29:01;;;;;;;;;;;;;;;;;;5092594;28;20413;-85
2021/12/17 10:31:28;;;;;;;;;;;;;;;;;;5092032;28;19998;-85
2021/12/17 10:33:55;;;;;;;;;;;;;;;;;;5093398;28;20009;-84
2021/12/17 10:36:22;;;;;;;;;;;;;;;;;;5096686;28;19948;-84
2021/12/17 10:38:49;;;;;;;;;;;;;;;;;;5096121;28;20067;-85
2021/12/17 10:41:16;;;;;;;;;;;;;;;;;;5096130;28;19990;-84
2021/12/17 10:43:46;;;;;;;;;;;;;;;;;;5096181;28;19995;-84
2021/12/17 10:46:22;;;;;;;;;;;;;;;;;;5096247;28;19961;-84
2021/12/17 10:48:53;;;;;;;;;;;;;;;;;;5096341;28;20053;-86
2021/12/17 10:51:24;;;;;;;;;;;;;;;;;;5096007;28;19960;-84
2021/12/17 10:53:53;;;;;;;;;;;;;;;;;;5096104;28;19957;-83
2021/12/17 10:56:20;;;;;;;;;;;;;;;;;;5096079;28;19998;-84
2021/12/17 10:58:47;;;;;;;;;;;;;;;;;;5095650;28;20052;-83
2021/12/17 11:01:14;;;;;;;;;;;;;;;;;;5096106;28;20053;-85
2021/12/17 11:03:41;;;;;;;;;;;;;;;;;;5095712;28;20055;-84
2021/12/17 11:06:08;;;;;;;;;;;;;;;;;;5096068;28;20370;-81
2021/12/17 11:08:37;;;;;;;;;;;;;;;;;;5095584;28;19978;-84
2021/12/17 11:11:09;;;;;;;;;;;;;;;;;;5095659;28;19958;-85
2021/12/17 11:13:36;;;;;;;;;;;;;;;;;;5095846;28;19960;-86
2021/12/17 11:16:03;;;;;;;;;;;;;;;;;;5095762;28;19954;-85
2021/12/17 11:18:30;;;;;;;;;;;;;;;;;;5095390;28;20061;-84
2021/12/17 11:20:57;;;;;;;;;;;;;;;;;;5095554;28;19984;-84
2021/12/17 11:23:24;;;;;;;;;;;;;;;;;;5095503;28;20031;-84
2021/12/17 11:25:53;;;;;;;;;;;;;;;;;;5095243;28;20057;-84
2021/12/17 11:28:20;;;;;;;;;;;;;;;;;;5095394;28;19949;-85
2021/12/17 11:30:48;;;;;;;;;;;;;;;;;;5095192;28;20049;-85
2021/12/17 11:33:15;;;;;;;;;;;;;;;;;;5095416;28;19952;-85
2021/12/17 11:35:43;;;;;;;;;;;;;;;;;;5095251;28;20055;-84
2021/12/17 11:38:10;;;;;;;;;;;;;;;;;;5095076;28;19969;-84
2021/12/17 11:40:37;;;;;;;;;;;;;;;;;;5095417;28;20051;-85
2021/12/17 11:43:09;;;;;;;;;;;;;;;;;;5095003;28;20053;-84
2021/12/17 11:45:36;;;;;;;;;;;;;;;;;;5094973;28;20001;-84
2021/12/17 11:48:03;;;;;;;;;;;;;;;;;;5094843;28;20047;-84
2021/12/17 11:50:30;;;;;;;;;;;;;;;;;;5094797;28;20492;-84
2021/12/17 11:52:57;;;;;;;;;;;;;;;;;;5095068;28;19997;-85
2021/12/17 11:55:24;;;;;;;;;;;;;;;;;;5095169;28;20076;-85
2021/12/17 11:57:51;;;;;;;;;;;;;;;;;;5094954;28;20173;-84
2021/12/17 12:00:18;;;;;;;;;;;;;;;;;;5103488;28;20380;-85
2021/12/17 12:02:45;;;;;;;;;;;;;;;;;;5114859;28;20031;-85
2021/12/17 12:05:12;;;;;;;;;;;;;;;;;;5114450;28;20039;-86
2021/12/17 12:07:40;;;;;;;;;;;;;;;;;;5114551;28;20062;-85
2021/12/17 12:10:08;;;;;;;;;;;;;;;;;;5114886;28;20028;-86
2021/12/17 12:12:35;;;;;;;;;;;;;;;;;;5114628;28;19991;-84
2021/12/17 12:15:02;;;;;;;;;;;;;;;;;;5114424;28;19981;-84
2021/12/17 12:17:29;;;;;;;;;;;;;;;;;;5114551;28;20072;-85
2021/12/17 12:19:56;;;;;;;;;;;;;;;;;;5114353;28;20039;-85
2021/12/17 12:22:23;;;;;;;;;;;;;;;;;;5119131;27;20039;-83
2021/12/17 12:24:50;;;;;;;;;;;;;;;;;;5114533;27;20041;-84
2021/12/17 12:27:17;;;;;;;;;;;;;;;;;;5112318;28;20129;-85
2021/12/17 12:29:44;;;;;;;;;;;;;;;;;;5113086;28;20035;-86
2021/12/17 12:32:11;;;;;;;;;;;;;;;;;;5114388;28;19996;-84
2021/12/17 12:34:38;;;;;;;;;;;;;;;;;;5114699;28;19972;-85
2021/12/17 12:37:05;;;;;;;;;;;;;;;;;;5114281;28;20034;-84
2021/12/17 12:39:31;;;;;;;;;;;;;;;;;;5114438;28;20070;-84
2021/12/17 12:41:58;;;;;;;;;;;;;;;;;;5114248;28;20495;-84
2021/12/17 12:44:25;;;;;;;;;;;;;;;;;;5113900;28;19997;-84
2021/12/17 12:46:53;;;;;;;;;;;;;;;;;;5113168;28;19998;-84
2021/12/17 12:49:20;;;;;;;;;;;;;;;;;;5113814;28;20074;-83
2021/12/17 12:51:47;;;;;;;;;;;;;;;;;;5113917;28;19952;-84
2021/12/17 12:54:16;;;;;;;;;;;;;;;;;;5114288;28;20041;-85
2021/12/17 12:56:43;;;;;;;;;;;;;;;;;;5113655;28;19952;-86
2021/12/17 12:59:10;;;;;;;;;;;;;;;;;;5113883;28;20494;-84
2021/12/17 13:01:37;;;;;;;;;;;;;;;;;;5113771;28;20040;-86
2021/12/17 13:04:04;;;;;;;;;;;;;;;;;;5113882;28;20400;-85
2021/12/17 13:06:32;;;;;;;;;;;;;;;;;;5114145;28;20034;-85
2021/12/17 13:08:59;;;;;;;;;;;;;;;;;;5113923;28;20014;-84
2021/12/17 13:11:26;;;;;;;;;;;;;;;;;;5113847;28;20047;-84
2021/12/17 13:13:54;;;;;;;;;;;;;;;;;;5113719;28;20052;-85
2021/12/17 13:16:24;;;;;;;;;;;;;;;;;;5113867;28;20468;-85
2021/12/17 13:21:58;;;;;;;;;;;;;;;;;;5113753;28;19942;-84
2021/12/17 13:24:25;;;;;;;;;;;;;;;;;;5113571;28;20385;-84
2021/12/17 13:26:52;;;;;;;;;;;;;;;;;;5114049;28;19994;-84
2021/12/17 13:29:21;;;;;;;;;;;;;;;;;;5113471;28;20452;-83
2021/12/17 13:31:48;;;;;;;;;;;;;;;;;;5113754;28;19954;-83
2021/12/17 13:34:15;;;;;;;;;;;;;;;;;;5113829;28;19992;-85
2021/12/17 13:36:42;;;;;;;;;;;;;;;;;;5112159;28;20040;-85
2021/12/17 13:39:09;;;;;;;;;;;;;;;;;;5113588;28;20014;-85
2021/12/17 13:41:36;;;;;;;;;;;;;;;;;;5113548;28;20040;-85
2021/12/17 13:44:03;;;;;;;;;;;;;;;;;;5113460;28;20068;-84
2021/12/17 13:46:30;;;;;;;;;;;;;;;;;;5113614;28;19952;-84
2021/12/17 13:48:57;;;;;;;;;;;;;;;;;;5113568;28;20042;-85
2021/12/17 13:51:24;;;;;;;;;;;;;;;;;;5111746;28;19977;-85
2021/12/17 13:53:52;;;;;;;;;;;;;;;;;;5112603;28;20046;-85
2021/12/17 13:56:19;;;;;;;;;;;;;;;;;;5110387;28;19944;-84
2021/12/17 13:58:47;;;;;;;;;;;;;;;;;;5112406;28;20055;-84
2021/12/17 14:01:15;;;;;;;;;;;;;;;;;;5112666;28;19948;-84
2021/12/17 14:03:42;;;;;;;;;;;;;;;;;;5112113;28;20295;-84
2021/12/17 14:06:16;;;;;;;;;;;;;;;;;;5112722;28;19947;-85
2021/12/17 14:08:43;;;;;;;;;;;;;;;;;;5113640;28;20001;-85
2021/12/17 14:11:10;;;;;;;;;;;;;;;;;;5117086;28;20482;-84
2021/12/17 14:13:37;;;;;;;;;;;;;;;;;;5118374;28;19986;-84
2021/12/17 14:16:05;;;;;;;;;;;;;;;;;;5117340;28;20457;-84
2021/12/17 14:18:33;;;;;;;;;;;;;;;;;;5117078;28;19973;-85
2021/12/17 14:21:00;;;;;;;;;;;;;;;;;;5116314;28;20396;-84
2021/12/17 14:23:27;;;;;;;;;;;;;;;;;;5116655;28;20023;-84
2021/12/17 14:25:54;;;;;;;;;;;;;;;;;;5116432;28;19990;-85
2021/12/17 14:28:23;;;;;;;;;;;;;;;;;;5116626;28;20030;-85
2021/12/17 14:30:50;;;;;;;;;;;;;;;;;;5116802;28;19948;-84
2021/12/17 14:33:17;;;;;;;;;;;;;;;;;;5116529;28;20008;-84
2021/12/17 14:35:44;;;;;;;;;;;;;;;;;;5116362;28;19990;-83
2021/12/17 14:38:11;;;;;;;;;;;;;;;;;;5116879;28;20060;-85
2021/12/17 14:40:43;;;;;;;;;;;;;;;;;;5116515;28;20106;-84
2021/12/17 14:43:10;;;;;;;;;;;;;;;;;;5116831;28;19993;-85
2021/12/17 14:45:43;;;;;;;;;;;;;;;;;;5116255;28;19942;-86
2021/12/17 14:48:10;;;;;;;;;;;;;;;;;;5116846;28;19954;-85
2021/12/17 15:01:50;;;;;;;;;;;;;;;;;;5115517;28;19964;-84
2021/12/17 15:04:17;;;;;;;;;;;;;;;;;;5115862;28;19987;-85
2021/12/17 15:06:44;;;;;;;;;;;;;;;;;;5116263;28;20048;-86
2021/12/17 15:09:11;;;;;;;;;;;;;;;;;;5120529;27;19960;-84
2021/12/17 15:11:42;;;;;;;;;;;;;;;;;;5116305;28;20050;-87
2021/12/17 15:14:09;;;;;;;;;;;;;;;;;;5116065;28;19991;-85
2021/12/17 15:16:36;;;;;;;;;;;;;;;;;;5116115;28;19956;-85
2021/12/17 15:19:03;;;;;;;;;;;;;;;;;;5114963;28;20059;-85
2021/12/17 15:21:30;;;;;;;;;;;;;;;;;;5115724;28;20027;-85
2021/12/17 15:23:57;;;;;;;;;;;;;;;;;;5115763;28;20048;-84
2021/12/17 15:26:24;;;;;;;;;;;;;;;;;;5115836;28;20062;-84
2021/12/17 15:28:51;;;;;;;;;;;;;;;;;;5108953;28;20589;-84
2021/12/17 15:31:18;;;;;;;;;;;;;;;;;;5095320;28;20005;-84
2021/12/17 15:33:45;;;;;;;;;;;;;;;;;;5104948;28;20029;-84
2021/12/17 15:36:12;;;;;;;;;;;;;;;;;;5096147;28;20357;-84
2021/12/17 15:38:39;;;;;;;;;;;;;;;;;;5095207;28;20050;-84
2021/12/17 15:41:06;;;;;;;;;;;;;;;;;;5095147;28;19978;-86
2021/12/17 15:43:33;;;;;;;;;;;;;;;;;;5096255;28;20038;-85
2021/12/17 15:46:00;;;;;;;;;;;;;;;;;;5094732;28;19956;-86
2021/12/17 15:48:27;;;;;;;;;;;;;;;;;;5102200;28;20042;-85
2021/12/17 15:50:54;;;;;;;;;;;;;;;;;;5115373;28;20387;-84
2021/12/17 15:53:21;;;;;;;;;;;;;;;;;;5108631;28;20029;-85
2021/12/17 15:55:48;;;;;;;;;;;;;;;;;;5093096;28;20038;-85
2021/12/17 15:58:15;;;;;;;;;;;;;;;;;;5106456;28;20038;-86
2021/12/17 16:00:42;;;;;;;;;;;;;;;;;;5115369;28;20036;-85
2021/12/17 16:03:10;;;;;;;;;;;;;;;;;;5109581;28;20032;-85
2021/12/17 16:05:37;;;;;;;;;;;;;;;;;;5114732;28;19941;-85
2021/12/17 16:08:05;;;;;;;;;;;;;;;;;;5114220;28;19993;-85
2021/12/17 16:20:59;;;;;;;;;;;;;;;;;;5114645;28;20032;-85
2021/12/17 16:21:41;;;;;;;;;;;;;;;;;;5114964;28;19962;-83
2021/12/17 16:24:08;;;;;;;;;;;;;;;;;;5114564;28;19953;-84
2021/12/17 16:26:35;;;;;;;;;;;;;;;;;;5115003;28;20055;-85
2021/12/17 16:29:02;;;;;;;;;;;;;;;;;;5114327;28;20035;-85
2021/12/17 16:31:29;;;;;;;;;;;;;;;;;;5112604;28;20458;-85
2021/12/17 16:33:58;;;;;;;;;;;;;;;;;;5113768;28;19976;-84
2021/12/17 16:36:25;;;;;;;;;;;;;;;;;;5114192;28;20307;-85
2021/12/17 16:38:52;;;;;;;;;;;;;;;;;;5113718;28;20067;-85
2021/12/17 16:41:20;;;;;;;;;;;;;;;;;;5114154;28;20035;-84
2021/12/17 16:43:49;;;;;;;;;;;;;;;;;;5113490;28;19977;-84
2021/12/17 16:47:01;;;;;;;;;;;;;;;;;;5114225;28;19966;-84
2021/12/17 16:49:14;;;;;;;;;;;;;;;;;;5111146;28;20414;-85
2021/12/17 16:51:41;;;;;;;;;;;;;;;;;;5113324;28;20015;-85
2021/12/17 16:54:08;;;;;;;;;;;;;;;;;;5113698;28;20048;-86
2021/12/17 16:56:35;;;;;;;;;;;;;;;;;;5114183;28;20465;-86
2021/12/17 16:59:02;;;;;;;;;;;;;;;;;;5113868;28;19962;-84
2021/12/17 17:01:30;;;;;;;;;;;;;;;;;;5113969;28;20036;-85
2021/12/17 17:03:58;;;;;;;;;;;;;;;;;;5114178;28;19956;-85
2021/12/17 17:06:25;;;;;;;;;;;;;;;;;;5112968;28;19945;-84
2021/12/17 17:08:59;;;;;;;;;;;;;;;;;;5113375;28;20034;-84
2021/12/17 17:11:29;;;;;;;;;;;;;;;;;;5113721;28;19994;-82
2021/12/17 17:13:57;;;;;;;;;;;;;;;;;;5114341;28;19953;-84
2021/12/17 17:16:24;;;;;;;;;;;;;;;;;;5113703;28;19948;-84
2021/12/17 17:18:51;;;;;;;;;;;;;;;;;;5113595;28;20477;-84
2021/12/17 17:21:18;;;;;;;;;;;;;;;;;;5112691;28;19953;-84
2021/12/17 17:23:46;;;;;;;;;;;;;;;;;;5112767;28;19943;-84
2021/12/17 17:26:13;;;;;;;;;;;;;;;;;;5112880;28;19948;-84
2021/12/17 17:28:43;;;;;;;;;;;;;;;;;;5113657;28;20480;-84
2021/12/17 17:31:10;;;;;;;;;;;;;;;;;;5113201;28;20287;-84
2021/12/17 17:33:45;;;;;;;;;;;;;;;;;;5113368;28;20042;-84
2021/12/17 17:36:12;;;;;;;;;;;;;;;;;;5113018;28;20030;-84
2021/12/17 17:38:39;;;;;;;;;;;;;;;;;;5113493;28;20485;-84
2021/12/17 17:41:06;;;;;;;;;;;;;;;;;;5113460;28;20046;-84
2021/12/17 17:43:33;;;;;;;;;;;;;;;;;;5115589;28;20039;-84
2021/12/17 17:46:00;;;;;;;;;;;;;;;;;;5117879;28;20045;-85
2021/12/17 17:48:28;;;;;;;;;;;;;;;;;;5117792;28;19998;-85
2021/12/17 17:50:55;;;;;;;;;;;;;;;;;;5117374;28;19948;-84
2021/12/17 17:53:22;;;;;;;;;;;;;;;;;;5117564;28;20038;-84
2021/12/17 17:55:48;;;;;;;;;;;;;;;;;;5117318;28;20030;-84
2021/12/17 17:58:15;;;;;;;;;;;;;;;;;;5117274;28;20451;-83
2021/12/17 18:00:42;;;;;;;;;;;;;;;;;;5117516;28;20052;-84
2021/12/17 18:03:09;;;;;;;;;;;;;;;;;;5117160;28;20051;-84
2021/12/17 18:05:37;;;;;;;;;;;;;;;;;;5117356;28;20036;-84
2021/12/17 18:08:04;;;;;;;;;;;;;;;;;;5117156;28;20309;-85
2021/12/17 18:10:31;;;;;;;;;;;;;;;;;;5117130;28;20059;-84
2021/12/17 18:12:59;;;;;;;;;;;;;;;;;;5117417;28;20123;-84
2021/12/17 18:15:26;;;;;;;;;;;;;;;;;;5116914;28;20416;-85
2021/12/17 18:17:53;;;;;;;;;;;;;;;;;;5117354;28;19998;-84
2021/12/17 18:20:21;;;;;;;;;;;;;;;;;;5116665;28;20006;-83
2021/12/17 18:22:48;;;;;;;;;;;;;;;;;;5117396;28;19945;-84
2021/12/17 18:25:15;;;;;;;;;;;;;;;;;;5117058;28;19984;-84
2021/12/17 18:27:42;;;;;;;;;;;;;;;;;;5117121;28;20057;-84
2021/12/17 18:30:10;;;;;;;;;;;;;;;;;;5116438;28;20038;-84
2021/12/17 18:32:37;;;;;;;;;;;;;;;;;;5116899;28;19959;-82
2021/12/17 18:35:04;;;;;;;;;;;;;;;;;;5116653;28;20062;-83
2021/12/17 18:37:31;;;;;;;;;;;;;;;;;;5116822;28;20047;-83
2021/12/17 18:39:58;;;;;;;;;;;;;;;;;;5117045;28;20323;-85
2021/12/17 18:45:10;;;;;;;;;;;;;;;;;;5116456;28;19932;-84
2021/12/17 18:47:37;;;;;;;;;;;;;;;;;;5116769;28;20393;-82
2021/12/17 18:50:04;;;;;;;;;;;;;;;;;;5116779;28;20048;-83
2021/12/17 18:52:31;;;;;;;;;;;;;;;;;;5116784;28;20043;-83
2021/12/17 18:54:58;;;;;;;;;;;;;;;;;;5115267;28;20053;-83
2021/12/17 18:57:25;;;;;;;;;;;;;;;;;;5116598;28;20047;-83
2021/12/17 18:59:52;;;;;;;;;;;;;;;;;;5116101;28;20420;-83
2021/12/17 19:02:19;;;;;;;;;;;;;;;;;;5116566;28;20038;-84
2021/12/17 19:04:46;;;;;;;;;;;;;;;;;;5116081;28;20072;-83
2021/12/17 19:07:13;;;;;;;;;;;;;;;;;;5116560;28;20050;-83
2021/12/17 19:09:40;;;;;;;;;;;;;;;;;;5115922;28;19969;-84
2021/12/17 19:12:07;;;;;;;;;;;;;;;;;;5116071;28;20382;-82
2021/12/17 19:14:37;;;;;;;;;;;;;;;;;;5116164;28;19959;-83
2021/12/17 19:17:04;;;;;;;;;;;;;;;;;;5115926;28;20429;-82
2021/12/17 19:19:39;;;;;;;;;;;;;;;;;;5115944;28;19992;-83
2021/12/17 19:22:23;;;;;;;;;;;;;;;;;;5116044;28;20002;-83
2021/12/17 19:24:50;;;;;;;;;;;;;;;;;;5115538;28;19979;-82
2021/12/17 19:27:17;;;;;;;;;;;;;;;;;;5115830;28;20414;-83
2021/12/17 19:29:44;;;;;;;;;;;;;;;;;;5115756;28;20032;-83
2021/12/17 19:32:11;;;;;;;;;;;;;;;;;;5115958;28;20050;-82
2021/12/17 19:34:38;;;;;;;;;;;;;;;;;;5115448;28;20040;-83
2021/12/17 19:37:05;;;;;;;;;;;;;;;;;;5115698;28;20038;-83
2021/12/17 19:39:32;;;;;;;;;;;;;;;;;;5115338;28;20048;-82